createdAt,value
2018-06-15T00:00:19.695Z,10.83
2018-06-15T00:02:53.748Z,11.53
2018-06-15T00:05:22.612Z,10.80
2018-06-15T00:07:51.380Z,11.30
2018-06-15T00:10:20.087Z,10.57
2018-06-15T00:12:48.834Z,11.40
2018-06-15T00:15:17.600Z,11.73
2018-06-15T00:17:46.332Z,10.80
2018-06-15T00:20:15.050Z,10.83
2018-06-15T00:22:43.773Z,11.33
2018-06-15T00:25:12.492Z,12.13
2018-06-15T00:27:41.281Z,12.23
2018-06-15T00:30:10.376Z,11.97
2018-06-15T00:32:39.163Z,12.80
2018-06-15T00:35:07.911Z,11.97
2018-06-15T00:37:36.639Z,13.07
2018-06-15T00:40:05.421Z,12.03
2018-06-15T00:42:34.077Z,12.97
2018-06-15T00:45:02.816Z,13.00
2018-06-15T00:47:31.518Z,14.07
2018-06-15T00:50:00.254Z,14.83
2018-06-15T00:52:28.942Z,14.07
2018-06-15T00:54:57.665Z,14.87
2018-06-15T00:57:37.410Z,15.77
2018-06-15T01:00:06.632Z,15.67
2018-06-15T01:02:35.298Z,15.47
2018-06-15T01:05:04.026Z,15.17
2018-06-15T01:07:33.070Z,15.33
2018-06-15T01:10:01.831Z,16.00
2018-06-15T01:12:30.579Z,14.47
2018-06-15T01:14:59.267Z,13.53
2018-06-15T01:17:27.992Z,14.17
2018-06-15T01:19:56.915Z,13.10
2018-06-15T01:22:25.895Z,11.80
2018-06-15T01:24:54.697Z,11.80
2018-06-15T01:27:23.400Z,11.53
2018-06-15T01:29:52.136Z,10.87
2018-06-15T01:32:20.922Z,11.07
2018-06-15T01:34:49.767Z,11.63
2018-06-15T01:37:18.531Z,11.93
2018-06-15T01:39:47.242Z,11.03
2018-06-15T01:42:15.970Z,10.77
2018-06-15T01:44:44.703Z,11.60
2018-06-15T01:47:13.481Z,10.50
2018-06-15T01:49:42.211Z,11.13
2018-06-15T01:52:10.980Z,10.87
2018-06-15T01:54:40.050Z,10.90
2018-06-15T01:57:08.843Z,10.63
2018-06-15T01:59:37.622Z,10.30
2018-06-15T02:02:06.317Z,10.03
2018-06-15T02:04:35.018Z,10.60
2018-06-15T02:07:03.786Z,11.00
2018-06-15T02:09:32.518Z,10.67
2018-06-15T02:12:01.249Z,11.30
2018-06-15T02:14:29.935Z,10.90
2018-06-15T02:16:58.639Z,11.40
2018-06-15T02:19:27.354Z,10.83
2018-06-15T02:21:56.071Z,11.60
2018-06-15T02:24:24.822Z,12.73
2018-06-15T02:26:53.586Z,11.30
2018-06-15T02:29:22.322Z,10.93
2018-06-15T02:31:51.738Z,12.10
2018-06-15T02:34:20.462Z,11.77
2018-06-15T02:36:49.194Z,11.83
2018-06-15T02:39:17.906Z,12.17
2018-06-15T02:41:46.608Z,12.63
2018-06-15T02:44:15.310Z,11.33
2018-06-15T02:46:47.057Z,12.33
2018-06-15T02:49:15.807Z,11.87
2018-06-15T02:51:44.828Z,14.00
2018-06-15T02:54:13.503Z,12.10
2018-06-15T02:56:42.311Z,12.60
2018-06-15T02:59:11.234Z,14.43
2018-06-15T03:01:39.924Z,13.47
2018-06-15T03:04:08.670Z,12.67
2018-06-15T03:06:37.398Z,13.43
2018-06-15T03:09:07.101Z,12.70
2018-06-15T03:11:35.787Z,13.13
2018-06-15T03:14:04.585Z,13.30
2018-06-15T03:16:33.294Z,12.70
2018-06-15T03:19:02.034Z,12.30
2018-06-15T03:21:30.812Z,11.90
2018-06-15T03:23:59.558Z,13.27
2018-06-15T03:26:28.265Z,13.23
2018-06-15T03:28:56.962Z,13.53
2018-06-15T03:31:25.718Z,14.10
2018-06-15T03:34:01.042Z,14.37
2018-06-15T03:36:29.772Z,14.73
2018-06-15T03:38:58.506Z,12.97
2018-06-15T03:41:27.257Z,12.80
2018-06-15T03:43:55.972Z,21.40
2018-06-15T03:46:24.770Z,10.87
2018-06-15T03:48:53.527Z,9.20
2018-06-15T03:51:22.269Z,9.40
2018-06-15T03:53:51.001Z,9.33
2018-06-15T03:56:19.692Z,9.17
2018-06-15T03:58:48.507Z,9.57
2018-06-15T04:01:17.399Z,9.80
2018-06-15T04:03:46.122Z,9.13
2018-06-15T04:06:14.872Z,9.10
2018-06-15T04:08:44.702Z,9.67
2018-06-15T04:11:13.570Z,9.73
2018-06-15T04:13:42.297Z,8.33
2018-06-15T04:16:17.269Z,9.00
2018-06-15T04:18:45.970Z,9.73
2018-06-15T04:21:14.762Z,10.33
2018-06-15T04:23:43.509Z,9.10
2018-06-15T04:26:12.215Z,9.97
2018-06-15T04:28:40.911Z,9.77
2018-06-15T04:31:09.688Z,10.10
2018-06-15T04:33:38.426Z,9.53
2018-06-15T04:36:07.192Z,10.27
2018-06-15T04:38:35.937Z,10.77
2018-06-15T04:41:04.749Z,10.70
2018-06-15T04:43:33.502Z,10.50
2018-06-15T04:46:02.447Z,9.80
2018-06-15T04:48:31.157Z,10.57
2018-06-15T04:50:59.892Z,10.73
2018-06-15T04:53:28.644Z,9.97
2018-06-15T04:55:57.356Z,11.33
2018-06-15T04:58:26.109Z,10.77
2018-06-15T05:00:54.837Z,12.17
2018-06-15T05:03:23.587Z,11.93
2018-06-15T05:05:52.304Z,10.77
2018-06-15T05:08:21.096Z,10.53
2018-06-15T05:10:49.838Z,11.07
2018-06-15T05:13:19.072Z,11.23
2018-06-15T05:15:47.784Z,11.73
2018-06-15T05:18:16.553Z,12.67
2018-06-15T05:20:45.305Z,12.97
2018-06-15T05:23:14.027Z,14.37
2018-06-15T05:25:42.794Z,14.70
2018-06-15T05:28:11.533Z,15.87
2018-06-15T05:30:40.252Z,15.47
2018-06-15T05:33:09.011Z,14.53
2018-06-15T05:35:37.735Z,15.30
2018-06-15T05:38:06.506Z,15.10
2018-06-15T05:40:35.534Z,16.33
2018-06-15T05:43:04.246Z,14.50
2018-06-15T05:45:32.960Z,15.27
2018-06-15T05:48:01.677Z,15.50
2018-06-15T05:50:30.402Z,16.07
2018-06-15T05:52:59.179Z,15.53
2018-06-15T05:55:27.928Z,14.63
2018-06-15T05:57:56.951Z,14.77
2018-06-15T06:00:25.674Z,14.27
2018-06-15T06:02:54.758Z,13.73
2018-06-15T06:05:23.494Z,14.67
2018-06-15T06:07:52.211Z,15.67
2018-06-15T06:10:20.935Z,16.87
2018-06-15T06:12:49.683Z,16.33
2018-06-15T06:15:18.906Z,16.20
2018-06-15T06:17:47.692Z,15.60
2018-06-15T06:20:16.469Z,15.03
2018-06-15T06:22:45.273Z,15.47
2018-06-15T06:25:14.008Z,16.10
2018-06-15T06:27:42.731Z,15.57
2018-06-15T06:30:11.785Z,17.77
2018-06-15T06:32:40.558Z,15.70
2018-06-15T06:35:09.451Z,14.50
2018-06-15T06:37:38.194Z,14.53
2018-06-15T06:40:07.284Z,14.37
2018-06-15T06:42:36.095Z,13.77
2018-06-15T06:45:04.999Z,12.57
2018-06-15T06:47:33.755Z,11.97
2018-06-15T06:50:02.525Z,14.07
2018-06-15T06:52:31.304Z,13.90
2018-06-15T06:55:00.092Z,13.57
2018-06-15T06:57:29.112Z,12.90
2018-06-15T06:59:57.819Z,13.37
2018-06-15T07:02:26.718Z,13.30
2018-06-15T07:04:55.479Z,13.57
2018-06-15T07:07:24.284Z,12.47
2018-06-15T07:09:53.012Z,11.20
2018-06-15T07:12:21.750Z,10.57
2018-06-15T07:14:55.347Z,9.87
2018-06-15T07:17:24.223Z,8.63
2018-06-15T07:19:52.976Z,8.33
2018-06-15T07:22:21.851Z,12.43
2018-06-15T07:24:50.644Z,7.43
2018-06-15T07:27:19.462Z,8.37
2018-06-15T07:29:48.202Z,9.70
2018-06-15T07:32:16.951Z,9.63
2018-06-15T07:34:45.772Z,9.83
2018-06-15T07:37:14.534Z,9.23
2018-06-15T07:39:43.282Z,9.57
2018-06-15T07:42:11.996Z,9.20
2018-06-15T07:44:40.766Z,9.87
2018-06-15T07:47:09.570Z,8.40
2018-06-15T07:49:38.343Z,8.60
2018-06-15T07:52:07.163Z,9.77
2018-06-15T07:54:35.935Z,9.00
2018-06-15T07:57:04.862Z,8.27
2018-06-15T07:59:33.623Z,8.87
2018-06-15T08:02:02.544Z,8.43
2018-06-15T08:04:31.281Z,8.37
2018-06-15T08:07:00.089Z,8.60
2018-06-15T08:09:28.922Z,9.03
2018-06-15T08:11:57.695Z,9.20
2018-06-15T08:14:26.448Z,7.90
2018-06-15T08:16:55.206Z,8.33
2018-06-15T08:19:24.062Z,7.80
2018-06-15T08:21:52.887Z,6.73
2018-06-15T08:24:21.579Z,6.97
2018-06-15T08:26:50.360Z,12.70
2018-06-15T08:29:19.147Z,8.43
2018-06-15T08:31:48.029Z,7.80
2018-06-15T08:34:16.762Z,8.00
2018-06-15T08:36:45.531Z,8.60
2018-06-15T08:39:14.310Z,9.13
2018-06-15T08:41:43.014Z,7.33
2018-06-15T08:44:11.747Z,7.77
2018-06-15T08:46:40.556Z,7.60
2018-06-15T08:49:09.311Z,6.40
2018-06-15T08:51:38.059Z,6.93
2018-06-15T08:54:06.823Z,6.50
2018-06-15T08:56:35.594Z,7.93
2018-06-15T08:59:04.382Z,8.60
2018-06-15T09:01:33.082Z,7.43
2018-06-15T09:04:01.842Z,8.80
2018-06-15T09:06:30.551Z,7.77
2018-06-15T09:08:59.310Z,6.93
2018-06-15T09:11:28.028Z,8.10
2018-06-15T09:13:56.778Z,8.27
2018-06-15T09:16:25.492Z,7.20
2018-06-15T09:18:54.180Z,7.47
2018-06-15T09:21:22.878Z,7.53
2018-06-15T09:23:51.578Z,8.03
2018-06-15T09:26:20.313Z,7.53
2018-06-15T09:28:49.014Z,7.30
2018-06-15T09:31:17.722Z,6.97
2018-06-15T09:33:46.414Z,6.63
2018-06-15T09:36:15.130Z,7.17
2018-06-15T09:38:43.839Z,7.23
2018-06-15T09:41:12.988Z,7.60
2018-06-15T09:43:42.603Z,6.67
2018-06-15T09:46:11.340Z,6.67
2018-06-15T09:48:43.730Z,6.53
2018-06-15T09:51:13.530Z,7.07
2018-06-15T09:53:42.281Z,6.27
2018-06-15T09:56:10.999Z,8.67
2018-06-15T09:58:39.721Z,8.60
2018-06-15T10:01:09.621Z,9.20
2018-06-15T10:03:39.422Z,7.33
2018-06-15T10:06:14.552Z,9.40
2018-06-15T10:08:44.218Z,6.77
2018-06-15T10:11:12.955Z,6.83
2018-06-15T10:13:41.698Z,8.53
2018-06-15T10:16:10.439Z,8.80
2018-06-15T10:18:39.177Z,7.10
2018-06-15T10:21:07.878Z,13.70
2018-06-15T10:23:36.570Z,16.50
2018-06-15T10:26:05.303Z,12.67
2018-06-15T10:28:34.014Z,10.03
2018-06-15T10:31:02.822Z,9.67
2018-06-15T10:33:31.549Z,10.83
2018-06-15T10:36:00.251Z,8.97
2018-06-15T10:38:28.981Z,7.17
2018-06-15T10:40:57.780Z,8.20
2018-06-15T10:43:26.544Z,11.00
2018-06-15T10:45:55.267Z,7.87
2018-06-15T10:48:23.988Z,10.87
2018-06-15T10:50:52.791Z,13.33
2018-06-15T10:53:27.777Z,10.10
2018-06-15T10:55:56.516Z,11.30
2018-06-15T10:58:25.249Z,7.90
2018-06-15T11:00:54.405Z,7.63
2018-06-15T11:03:23.151Z,7.17
2018-06-15T11:05:51.875Z,7.80
2018-06-15T11:08:27.058Z,6.80
2018-06-15T11:10:55.811Z,4.40
2018-06-15T11:13:24.551Z,4.17
2018-06-15T11:15:53.358Z,3.97
2018-06-15T11:18:22.094Z,3.60
2018-06-15T11:20:50.846Z,4.10
2018-06-15T11:23:19.553Z,5.30
2018-06-15T11:25:48.338Z,4.67
2018-06-15T11:28:17.098Z,4.27
2018-06-15T11:30:45.890Z,5.10
2018-06-15T11:33:14.809Z,5.90
2018-06-15T11:35:43.565Z,5.80
2018-06-15T11:38:12.494Z,6.63
2018-06-15T11:40:41.854Z,6.53
2018-06-15T11:43:10.713Z,6.57
2018-06-15T11:45:39.493Z,6.87
2018-06-15T11:48:08.289Z,7.63
2018-06-15T11:50:37.096Z,7.40
2018-06-15T11:53:05.899Z,7.40
2018-06-15T11:55:34.664Z,7.00
2018-06-15T11:58:03.394Z,6.73
2018-06-15T12:00:32.139Z,6.83
2018-06-15T12:03:00.834Z,7.57
2018-06-15T12:05:29.550Z,7.43
2018-06-15T12:07:58.337Z,7.37
2018-06-15T12:10:27.186Z,6.77
2018-06-15T12:12:55.941Z,7.40
2018-06-15T12:15:24.687Z,7.03
2018-06-15T12:17:53.487Z,6.67
2018-06-15T12:20:22.177Z,7.10
2018-06-15T12:22:50.903Z,6.87
2018-06-15T12:25:19.658Z,6.20
2018-06-15T12:27:48.530Z,6.20
2018-06-15T12:30:17.300Z,6.20
2018-06-15T12:32:45.994Z,6.13
2018-06-15T12:35:14.920Z,6.93
2018-06-15T12:37:43.665Z,6.90
2018-06-15T12:40:12.531Z,7.30
2018-06-15T12:42:41.406Z,6.33
2018-06-15T12:45:10.209Z,6.17
2018-06-15T12:47:39.018Z,6.53
2018-06-15T12:50:07.912Z,6.83
2018-06-15T12:52:36.633Z,6.57
2018-06-15T12:55:05.429Z,9.53
2018-06-15T12:57:34.980Z,15.83
2018-06-15T13:00:05.480Z,6.50
2018-06-15T13:02:34.243Z,5.70
2018-06-15T13:05:03.090Z,5.97
2018-06-15T13:07:31.797Z,5.80
2018-06-15T13:10:01.246Z,6.03
2018-06-15T13:12:30.664Z,7.00
2018-06-15T13:14:59.470Z,5.90
2018-06-15T13:17:29.272Z,6.20
2018-06-15T13:19:58.099Z,6.33
2018-06-15T13:22:27.782Z,6.20
2018-06-15T13:24:56.547Z,5.53
2018-06-15T13:27:25.340Z,5.73
2018-06-15T13:29:54.108Z,4.90
2018-06-15T13:32:22.867Z,5.90
2018-06-15T13:34:51.583Z,6.60
2018-06-15T13:37:20.363Z,6.60
2018-06-15T13:39:49.212Z,6.67
2018-06-15T13:42:17.999Z,5.60
2018-06-15T13:44:46.755Z,6.10
2018-06-15T13:47:15.500Z,5.30
2018-06-15T13:49:44.280Z,5.07
2018-06-15T13:52:13.302Z,5.50
2018-06-15T13:54:42.014Z,5.23
2018-06-15T13:57:10.917Z,4.60
2018-06-15T13:59:39.676Z,4.90
2018-06-15T14:02:08.423Z,4.37
2018-06-15T14:04:37.187Z,4.47
2018-06-15T14:07:06.116Z,5.00
2018-06-15T14:09:35.016Z,4.57
2018-06-15T14:12:03.834Z,5.13
2018-06-15T14:14:33.142Z,5.47
2018-06-15T14:17:01.868Z,5.63
2018-06-15T14:19:33.666Z,5.60
2018-06-15T14:22:02.477Z,6.30
2018-06-15T14:24:31.202Z,4.80
2018-06-15T14:27:00.010Z,5.87
2018-06-15T14:29:28.743Z,6.47
2018-06-15T14:31:57.607Z,6.70
2018-06-15T14:34:26.380Z,6.43
2018-06-15T14:36:55.129Z,5.53
2018-06-15T14:39:23.898Z,6.50
2018-06-15T14:41:52.616Z,6.10
2018-06-15T14:44:21.390Z,6.60
2018-06-15T14:46:50.172Z,6.00
2018-06-15T14:49:19.052Z,6.03
2018-06-15T14:51:47.882Z,7.63
2018-06-15T14:54:16.651Z,7.70
2018-06-15T14:56:45.449Z,9.27
2018-06-15T14:59:14.196Z,8.73
2018-06-15T15:01:42.967Z,8.63
2018-06-15T15:04:11.747Z,8.10
2018-06-15T15:06:40.566Z,8.70
2018-06-15T15:09:09.571Z,9.00
2018-06-15T15:11:38.435Z,10.67
2018-06-15T15:14:07.357Z,11.13
2018-06-15T15:16:36.262Z,10.87
2018-06-15T15:19:05.596Z,10.20
2018-06-15T15:21:34.430Z,10.30
2018-06-15T15:24:03.115Z,9.67
2018-06-15T15:26:31.855Z,10.03
2018-06-15T15:29:00.599Z,9.33
2018-06-15T15:31:29.335Z,9.63
2018-06-15T15:33:58.106Z,9.77
2018-06-15T15:36:26.901Z,9.43
2018-06-15T15:38:55.810Z,10.17
2018-06-15T15:41:24.546Z,9.97
2018-06-15T15:43:53.324Z,9.70
2018-06-15T15:46:22.112Z,10.30
2018-06-15T15:48:51.153Z,8.63
2018-06-15T15:51:19.908Z,8.20
2018-06-15T15:53:48.655Z,7.33
2018-06-15T15:56:17.404Z,6.93
2018-06-15T15:58:46.187Z,6.57
2018-06-15T16:01:14.964Z,6.53
2018-06-15T16:03:43.710Z,6.50
2018-06-15T16:06:12.439Z,5.83
2018-06-15T16:08:41.228Z,5.53
2018-06-15T16:11:10.025Z,5.30
2018-06-15T16:13:38.883Z,5.20
2018-06-15T16:16:08.568Z,9.93
2018-06-15T16:18:37.328Z,6.80
2018-06-15T16:21:06.172Z,6.23
2018-06-15T16:23:34.956Z,7.47
2018-06-15T16:26:04.093Z,7.73
2018-06-15T16:28:32.921Z,7.80
2018-06-15T16:31:01.628Z,6.10
2018-06-15T16:33:30.468Z,7.70
2018-06-15T16:35:59.291Z,7.93
2018-06-15T16:38:28.002Z,7.53
2018-06-15T16:40:57.054Z,8.07
2018-06-15T16:43:25.845Z,7.60
2018-06-15T16:45:54.766Z,6.40
2018-06-15T16:48:23.526Z,6.17
2018-06-15T16:50:52.297Z,6.57
2018-06-15T16:53:21.280Z,6.83
2018-06-15T16:55:50.131Z,7.07
2018-06-15T16:58:18.827Z,6.97
2018-06-15T17:00:47.616Z,7.37
2018-06-15T17:03:16.348Z,7.43
2018-06-15T17:05:45.151Z,8.60
2018-06-15T17:08:13.878Z,10.90
2018-06-15T17:10:42.634Z,10.53
2018-06-15T17:13:12.411Z,11.07
2018-06-15T17:15:41.168Z,9.30
2018-06-15T17:18:09.987Z,10.13
2018-06-15T17:20:38.753Z,10.30
2018-06-15T17:23:07.980Z,10.07
2018-06-15T17:25:36.737Z,10.53
2018-06-15T17:28:05.517Z,10.70
2018-06-15T17:30:34.304Z,11.23
2018-06-15T17:33:09.764Z,12.33
2018-06-15T17:35:38.573Z,12.63
2018-06-15T17:38:07.543Z,13.03
2018-06-15T17:40:36.531Z,11.60
2018-06-15T17:43:05.386Z,11.23
2018-06-15T17:45:34.168Z,11.87
2018-06-15T17:48:02.912Z,12.73
2018-06-15T17:50:31.676Z,11.87
2018-06-15T17:53:00.419Z,12.47
2018-06-15T17:55:29.437Z,11.60
2018-06-15T17:57:58.203Z,10.07
2018-06-15T18:00:27.080Z,10.87
2018-06-15T18:02:55.914Z,10.40
2018-06-15T18:05:24.652Z,12.17
2018-06-15T18:07:53.494Z,13.03
2018-06-15T18:10:22.249Z,12.27
2018-06-15T18:12:50.981Z,11.83
2018-06-15T18:15:19.741Z,11.40
2018-06-15T18:17:48.514Z,12.10
2018-06-15T18:20:17.291Z,12.23
2018-06-15T18:22:52.704Z,11.73
2018-06-15T18:25:21.471Z,12.80
2018-06-15T18:27:50.194Z,11.23
2018-06-15T18:30:19.702Z,12.60
2018-06-15T18:32:48.439Z,10.90
2018-06-15T18:35:17.214Z,9.07
2018-06-15T18:37:45.995Z,8.97
2018-06-15T18:40:15.665Z,8.70
2018-06-15T18:42:44.480Z,8.67
2018-06-15T18:45:13.269Z,8.07
2018-06-15T18:47:41.959Z,7.33
2018-06-15T18:50:10.748Z,8.50
2018-06-15T18:52:39.756Z,7.13
2018-06-15T18:55:08.998Z,7.70
2018-06-15T18:57:38.630Z,7.50
2018-06-15T19:00:07.496Z,11.40
2018-06-15T19:02:36.203Z,12.40
2018-06-15T19:05:05.019Z,12.60
2018-06-15T19:07:33.812Z,15.80
2018-06-15T19:10:02.605Z,14.60
2018-06-15T19:12:31.384Z,14.57
2018-06-15T19:15:00.134Z,13.67
2018-06-15T19:17:28.967Z,13.63
2018-06-15T19:19:57.684Z,13.90
2018-06-15T19:22:26.463Z,14.30
2018-06-15T19:24:55.224Z,14.10
2018-06-15T19:27:23.954Z,13.67
2018-06-15T19:29:52.696Z,11.80
2018-06-15T19:32:21.446Z,11.50
2018-06-15T19:34:50.187Z,12.77
2018-06-15T19:37:18.912Z,12.80
2018-06-15T19:39:47.682Z,12.93
2018-06-15T19:42:16.482Z,11.40
2018-06-15T19:44:45.287Z,11.57
2018-06-15T19:47:14.061Z,13.07
2018-06-15T19:49:42.875Z,15.37
2018-06-15T19:52:11.610Z,16.10
2018-06-15T19:54:40.384Z,15.50
2018-06-15T19:57:09.246Z,14.77
2018-06-15T19:59:37.959Z,15.10
2018-06-15T20:02:06.762Z,14.33
2018-06-15T20:04:35.471Z,15.83
2018-06-15T20:07:04.326Z,14.87
2018-06-15T20:09:33.059Z,15.63
2018-06-15T20:12:01.867Z,15.20
2018-06-15T20:14:30.666Z,16.17
2018-06-15T20:16:59.416Z,15.50
2018-06-15T20:19:29.883Z,15.77
2018-06-15T20:21:59.261Z,15.50
2018-06-15T20:24:27.981Z,16.07
2018-06-15T20:26:57.087Z,15.10
2018-06-15T20:29:25.900Z,16.70
2018-06-15T20:31:54.744Z,16.93
2018-06-15T20:34:23.475Z,18.07
2018-06-15T20:36:52.220Z,17.60
2018-06-15T20:39:20.929Z,22.13
2018-06-15T20:41:49.718Z,21.53
2018-06-15T20:44:19.065Z,19.07
2018-06-15T20:46:47.860Z,17.97
2018-06-15T20:49:16.553Z,17.90
2018-06-15T20:51:45.763Z,13.33
2018-06-15T20:54:14.483Z,11.63
2018-06-15T20:56:43.283Z,13.00
2018-06-15T20:59:12.004Z,12.73
2018-06-15T21:01:40.738Z,13.50
2018-06-15T21:04:09.478Z,13.20
2018-06-15T21:06:38.207Z,14.87
2018-06-15T21:09:08.727Z,13.93
2018-06-15T21:11:37.434Z,14.23
2018-06-15T21:14:06.368Z,13.77
2018-06-15T21:16:35.143Z,14.00
2018-06-15T21:19:03.890Z,10.57
2018-06-15T21:21:32.597Z,9.90
2018-06-15T21:24:01.336Z,9.77
2018-06-15T21:26:30.097Z,9.13
2018-06-15T21:28:58.968Z,9.17
2018-06-15T21:31:27.718Z,7.57
2018-06-15T21:33:56.467Z,8.60
2018-06-15T21:36:25.198Z,8.27
2018-06-15T21:38:53.988Z,7.80
2018-06-15T21:41:23.262Z,8.20
2018-06-15T21:43:51.987Z,8.50
2018-06-15T21:46:20.738Z,8.03
2018-06-15T21:48:49.596Z,8.23
2018-06-15T21:51:18.332Z,8.40
2018-06-15T21:53:47.116Z,7.90
2018-06-15T21:56:15.794Z,8.60
2018-06-15T21:58:44.527Z,8.70
2018-06-15T22:01:13.276Z,9.13
2018-06-15T22:03:42.051Z,8.83
2018-06-15T22:06:17.473Z,8.53
2018-06-15T22:08:46.208Z,9.20
2018-06-15T22:11:14.932Z,8.10
2018-06-15T22:13:43.627Z,7.87
2018-06-15T22:16:19.215Z,8.57
2018-06-15T22:18:48.035Z,9.40
2018-06-15T22:21:16.827Z,8.37
2018-06-15T22:23:45.494Z,8.43
2018-06-15T22:26:14.206Z,8.03
2018-06-15T22:28:42.915Z,8.30
2018-06-15T22:31:11.619Z,8.97
2018-06-15T22:33:40.338Z,8.83
2018-06-15T22:36:09.069Z,9.63
2018-06-15T22:38:37.776Z,8.57
2018-06-15T22:41:06.958Z,9.90
2018-06-15T22:43:35.714Z,9.77
2018-06-15T22:46:04.472Z,10.00
2018-06-15T22:48:33.202Z,10.33
2018-06-15T22:51:01.991Z,10.10
2018-06-15T22:53:30.770Z,11.13
2018-06-15T22:55:59.490Z,9.50
2018-06-15T22:58:28.192Z,10.20
2018-06-15T23:00:56.963Z,9.70
2018-06-15T23:03:25.720Z,9.37
2018-06-15T23:05:54.475Z,9.40
2018-06-15T23:08:23.261Z,8.87
2018-06-15T23:10:52.007Z,9.10
2018-06-15T23:13:20.808Z,9.20
2018-06-15T23:15:49.525Z,10.53
2018-06-15T23:18:18.279Z,11.10
2018-06-15T23:20:47.054Z,11.20
2018-06-15T23:23:15.743Z,12.83
2018-06-15T23:25:44.455Z,16.23
2018-06-15T23:28:13.202Z,17.50
2018-06-15T23:30:41.990Z,17.60
2018-06-15T23:33:10.726Z,16.60
2018-06-15T23:35:39.535Z,16.50
2018-06-15T23:38:08.848Z,17.57
2018-06-15T23:40:37.619Z,15.67
2018-06-15T23:43:06.390Z,15.37
2018-06-15T23:45:35.446Z,14.73
2018-06-15T23:48:04.611Z,13.33
2018-06-15T23:50:33.319Z,12.17
2018-06-15T23:53:02.049Z,11.90
2018-06-15T23:55:30.807Z,9.33
2018-06-15T23:57:59.592Z,8.90
